createdAt,value
2022-11-20T07:35:01.658Z,74.20
2022-11-20T07:40:22.731Z,74.03
2022-11-20T07:45:43.527Z,74.25
2022-11-20T07:51:04.395Z,74.21
2022-11-20T07:56:25.151Z,74.54
2022-11-20T08:01:45.935Z,74.21
2022-11-20T08:07:06.711Z,74.82
2022-11-20T08:12:45.898Z,74.77
2022-11-20T08:23:53.339Z,74.25
2022-11-20T08:29:14.155Z,74.71
2022-11-20T08:34:35.330Z,74.56
2022-11-20T08:39:57.954Z,74.74
2022-11-20T08:45:19.925Z,74.84
2022-11-20T08:50:40.921Z,74.73
2022-11-20T08:56:01.825Z,74.85
2022-11-20T09:01:24.459Z,74.88
2022-11-20T09:06:45.548Z,74.72
2022-11-20T09:12:06.447Z,74.71
2022-11-20T09:17:27.279Z,74.94
2022-11-20T09:22:48.008Z,74.87
2022-11-20T09:28:09.088Z,74.62
2022-11-20T09:33:30.034Z,74.80
2022-11-20T09:38:50.917Z,74.51
2022-11-20T09:44:48.862Z,74.65
2022-11-20T09:50:36.091Z,74.60
2022-11-20T09:55:57.597Z,74.57
2022-11-20T10:01:20.791Z,74.49
2022-11-20T10:06:59.677Z,74.55
2022-11-20T10:12:51.884Z,74.41
2022-11-20T10:18:20.781Z,74.42
2022-11-20T10:24:04.840Z,74.19
2022-11-20T10:29:48.830Z,74.50
2022-11-20T10:35:42.966Z,74.34
2022-11-20T10:41:25.010Z,73.41
2022-11-20T10:46:46.369Z,73.21
2022-11-20T10:52:22.579Z,73.41
2022-11-20T10:57:46.749Z,73.88
2022-11-20T11:03:34.177Z,73.24
2022-11-20T11:08:59.737Z,73.06
2022-11-20T11:14:20.467Z,73.22
2022-11-20T11:19:41.438Z,73.73
2022-11-20T11:25:02.984Z,73.99
2022-11-20T11:30:25.687Z,73.44
2022-11-20T11:35:51.735Z,73.84
2022-11-20T11:41:23.928Z,73.39
2022-11-20T11:46:53.807Z,73.65
2022-11-20T11:52:18.275Z,73.83
2022-11-20T11:57:45.407Z,74.22
2022-11-20T12:03:44.843Z,74.02
2022-11-20T12:09:10.971Z,74.00
2022-11-20T12:14:37.987Z,74.07
2022-11-20T12:19:58.732Z,74.47
2022-11-20T12:25:28.445Z,74.42
2022-11-20T12:31:12.201Z,74.58
2022-11-20T12:36:39.582Z,74.82
2022-11-20T12:42:48.403Z,75.07
2022-11-20T12:48:33.248Z,74.95
2022-11-20T12:54:28.345Z,75.38
2022-11-20T13:00:11.787Z,75.19
2022-11-20T13:05:41.970Z,75.13
2022-11-20T13:11:27.705Z,75.25
2022-11-20T13:16:55.728Z,75.32
2022-11-20T13:22:45.375Z,75.49
2022-11-20T13:28:30.775Z,75.24
2022-11-20T13:33:55.710Z,75.55
2022-11-20T13:39:29.586Z,75.35
2022-11-20T13:45:02.849Z,75.56
2022-11-20T13:50:49.088Z,75.52
2022-11-20T13:56:38.256Z,75.71
2022-11-20T14:01:59.458Z,75.52
2022-11-20T14:07:22.925Z,75.58
2022-11-20T14:12:43.611Z,75.74
2022-11-20T14:18:15.248Z,75.56
2022-11-20T14:23:35.863Z,75.51
2022-11-20T14:28:56.821Z,75.81
2022-11-20T14:34:21.377Z,75.66
2022-11-20T14:39:49.414Z,75.68
2022-11-20T14:45:13.213Z,75.72
2022-11-20T14:50:34.703Z,75.83
2022-11-20T14:56:01.330Z,75.63
2022-11-20T15:01:28.467Z,75.31
2022-11-20T15:06:55.128Z,75.89
2022-11-20T15:12:18.690Z,75.76
2022-11-20T15:17:41.771Z,75.42
2022-11-20T15:23:02.749Z,75.73
2022-11-20T15:28:48.816Z,75.88
2022-11-20T15:34:15.567Z,75.42
2022-11-20T15:39:36.321Z,75.76
2022-11-20T15:44:57.307Z,75.51
2022-11-20T15:50:18.813Z,75.38
2022-11-20T15:55:39.918Z,75.64
2022-11-20T16:01:00.757Z,75.38
2022-11-20T16:06:21.610Z,75.76
2022-11-20T16:11:42.372Z,75.77
2022-11-20T16:17:04.060Z,75.49
2022-11-20T16:22:24.705Z,76.25
2022-11-20T16:27:45.619Z,76.17
2022-11-20T16:33:13.230Z,76.03
2022-11-20T16:38:34.401Z,75.56
2022-11-20T16:44:00.302Z,75.38
2022-11-20T16:49:21.464Z,75.97
2022-11-20T16:54:42.166Z,75.35
2022-11-20T17:00:04.232Z,75.87
2022-11-20T17:05:24.893Z,75.79
2022-11-20T17:10:45.738Z,75.93
2022-11-20T17:16:15.825Z,76.28
2022-11-20T17:21:37.876Z,76.01
2022-11-20T17:26:58.607Z,76.06
2022-11-20T17:32:19.458Z,75.77
2022-11-20T17:37:40.489Z,75.84
2022-11-20T17:43:01.340Z,75.40
2022-11-20T17:48:22.312Z,75.58
2022-11-20T17:53:45.030Z,75.74
2022-11-20T17:59:07.506Z,75.59
2022-11-20T18:04:28.337Z,75.65
2022-11-20T18:09:49.209Z,75.75
2022-11-20T18:15:10.057Z,75.58
2022-11-20T18:20:35.163Z,76.00
2022-11-20T18:26:00.712Z,75.73
2022-11-20T18:31:21.937Z,75.49
2022-11-20T18:36:42.985Z,75.77
2022-11-20T18:42:22.716Z,75.93
2022-11-20T18:47:44.064Z,75.45
2022-11-20T18:53:04.922Z,75.65
2022-11-20T18:58:28.072Z,75.77
2022-11-20T19:03:49.308Z,75.65
2022-11-20T19:09:12.475Z,75.38
2022-11-20T19:14:33.470Z,75.67
2022-11-20T19:19:55.303Z,75.47
2022-11-20T19:25:16.222Z,75.49
2022-11-20T19:30:36.926Z,75.70
2022-11-20T19:35:58.587Z,75.89
2022-11-20T19:41:31.641Z,76.08
2022-11-20T19:46:52.653Z,75.74
2022-11-20T19:52:13.492Z,75.69
2022-11-20T19:57:34.395Z,75.64
2022-11-20T20:02:55.175Z,75.43
2022-11-20T20:08:17.038Z,75.67
2022-11-20T20:13:38.415Z,75.80
2022-11-20T20:19:01.783Z,75.91
2022-11-20T20:24:22.830Z,76.22
2022-11-20T20:29:43.686Z,75.89
2022-11-20T20:35:05.974Z,75.47
2022-11-20T20:40:26.696Z,76.22
2022-11-20T20:45:49.263Z,75.35
2022-11-20T20:51:10.093Z,75.43
2022-11-20T20:56:31.072Z,75.49
2022-11-20T21:01:51.907Z,75.85
2022-11-20T21:07:12.715Z,75.70
